• Join FlightAware (Why Join?)
  • Login
  • US Flag 
08:50AM EDT


 

Airport Tracker/Info


-or-


 

Live Flight TrackerFlight Track Log ✈ N77VZ ✈ 23-Dec-2013 ✈ KSVH - KAPF

Flight Track Log - Related Links

Times and Time Zones

All times are in EST time to prevent confusion due to time zone crossing. See the N77VZ flight status page for this flight to view local times or setup timezone preferences in your user account.

Time Position Orientation Groundspeed Altitude Reporting Facility
EST Latitude Longitude Course Direction KTS MPH feet Rate Location/Type
10:07AM 35.7722 -81.0722 272° West 362 417 4,000  Level Atlanta Center
10:07AM 35.7725 -81.0850 272° West 254 292 4,100 360 Climbing Atlanta Center
10:07AM 35.7708 -81.1031 264° West 254 292 4,100 -120 Level Atlanta Center
10:08AM 35.7636 -81.1519 260° West 288 331 4,000  Descending Atlanta Center
10:08AM 35.7453 -81.1706 219° Southwest 231 266 4,100 60 Climbing Atlanta Center
10:09AM 35.7061 -81.1872 199° South 225 259 4,100  Level Atlanta Center
10:09AM 35.6808 -81.1856 177° South 241 277 4,100  Level Atlanta Center
10:10AM 35.6436 -81.1944 191° South 204 235 4,100 -120 Level Atlanta Center
10:10AM 35.6167 -81.2006 190° South 205 236 4,000 600 Descending Atlanta Center
10:11AM 35.5856 -81.2067 189° South 210 242 4,700 1,560 Climbing Atlanta Center
10:11AM 35.5628 -81.2178 202° Southwest 203 234 5,600 1,380 Climbing Atlanta Center
10:12AM 35.5233 -81.2217 185° South 229 264 6,100 2,100 Climbing Atlanta Center
10:13AM 35.4631 -81.2339 189° South 234 269 9,200 3,000 Climbing Atlanta Center
10:14AM 35.3944 -81.2492 190° South 234 269 12,100 2,940 Climbing Atlanta Center
10:15AM 35.3258 -81.2642 190° South 239 275 15,100 2,400 Climbing Atlanta Center
10:16AM 35.2575 -81.2817 192° South 239 275 16,900 960 Climbing Atlanta Center
10:17AM 35.1828 -81.2969 189° South 257 296 17,100 1,260 Climbing Atlanta Center
10:18AM 35.1058 -81.3119 189° South 270 311 19,500 1,980 Climbing Atlanta Center
10:19AM 35.0333 -81.3297 191° South 275 316 21,100 1,500 Climbing Atlanta Center
10:20AM 34.9564 -81.3475 191° South 275 316 22,600 1,380 Climbing Atlanta Center
10:21AM 34.8794 -81.3625 189° South 280 322 23,900 1,140 Climbing Atlanta Center
10:23AM 34.7247 -81.3947 190° South 288 331 26,100 1,020 Climbing Jacksonville Center
10:24AM 34.6519 -81.4111 190° South 275 316 27,100 900 Climbing Jacksonville Center
10:25AM 34.5747 -81.4275 190° South 275 316 27,900 840 Climbing Jacksonville Center
10:26AM 34.4978 -81.4464 191° South 275 316 28,800 840 Climbing Jacksonville Center
10:27AM 34.4231 -81.4603 189° South 275 316 29,600 780 Climbing Jacksonville Center
10:28AM 34.3481 -81.4767 190° South 275 316 30,400 780 Climbing Jacksonville Center
10:29AM 34.2731 -81.4903 189° South 275 316 31,200 780 Climbing Jacksonville Center
10:30AM 34.1961 -81.5067 190° South 275 316 32,000 780 Climbing Jacksonville Center
10:31AM 34.1147 -81.5231 189° South 280 322 32,800 780 Climbing Jacksonville Center
10:32AM 34.0378 -81.5419 191° South 285 328 33,600 780 Climbing Jacksonville Center
10:33AM 33.9608 -81.5556 188° South 285 328 34,400 840 Climbing Jacksonville Center
10:34AM 33.8858 -81.5717 190° South 285 328 35,300 840 Climbing Jacksonville Center
10:35AM 33.8089 -81.5878 190° South 285 328 36,100 780 Climbing Jacksonville Center
10:36AM 33.7339 -81.6039 190° South 280 322 36,900 660 Climbing Jacksonville Center
10:37AM 33.6589 -81.6200 190° South 275 316 37,500 540 Climbing Jacksonville Center
10:38AM 33.5819 -81.6361 190° South 275 316 38,000 540 Climbing Jacksonville Center
10:39AM 33.5028 -81.6522 190° South 280 322 38,600 540 Climbing Jacksonville Center
10:40AM 33.4236 -81.6681 189° South 280 322 39,100 480 Climbing Jacksonville Center
10:41AM 33.3464 -81.6842 190° South 285 328 39,600 420 Climbing Jacksonville Center
10:42AM 33.2631 -81.7028 191° South 291 335 40,000 180 Climbing Jacksonville Center
10:43AM 33.1819 -81.7186 189° South 297 342 40,000  Level Jacksonville Center
10:44AM 33.0964 -81.7372 190° South 297 342 40,000  Level Jacksonville Center
10:45AM 33.0131 -81.7531 189° South 302 348 40,000  Level Jacksonville Center
10:46AM 32.9278 -81.7714 190° South 312 359 40,000  Level Jacksonville Center
10:47AM 32.8422 -81.7897 190° South 312 359 40,000  Level Jacksonville Center
10:48AM 32.7569 -81.8056 189° South 312 359 40,000  Level Jacksonville Center
10:49AM 32.6714 -81.8264 192° South 306 352 40,000  Level Jacksonville Center
10:50AM 32.5944 -81.8422 190° South 312 359 40,000  Level Jacksonville Center
10:51AM 32.4983 -81.8631 190° South 317 365 40,000  Level Jacksonville Center
10:52AM 32.4089 -81.8786 188° South 317 365 40,000  Level Jacksonville Center
10:53AM 32.3317 -81.8969 191° South 317 365 40,000  Level Jacksonville Center
10:54AM 32.2358 -81.9150 189° South 317 365 40,000  Level Jacksonville Center
10:55AM 32.1544 -81.9306 189° South 317 365 40,000  Level Jacksonville Center
10:56AM 32.0567 -81.9536 191° South 322 371 40,000  Level Jacksonville Center
10:57AM 31.9669 -81.9694 189° South 322 371 40,000  Level Jacksonville Center
10:58AM 31.8878 -81.9775 185° South 332 382 40,000  Level Jacksonville Center
10:59AM 31.7833 -81.9883 185° South 332 382 40,000  Level Jacksonville Center
11:00AM 31.6936 -81.9939 183° South 332 382 40,000  Level Jacksonville Center
11:01AM 31.6100 -82.0022 185° South 332 382 40,000  Level Jacksonville Center
11:02AM 31.5078 -82.0128 185° South 332 382 40,000 -60 Level Jacksonville Center
11:03AM 31.4244 -82.0208 185° South 332 382 39,900 -60 Descending Jacksonville Center
11:04AM 31.3325 -82.0292 184° South 332 382 39,900  Level Jacksonville Center
11:05AM 31.2408 -82.0397 186° South 332 382 39,900  Level Jacksonville Center
11:06AM 31.1489 -82.0453 183° South 332 382 39,900  Level Jacksonville Center
11:07AM 31.0550 -82.0536 184° South 332 382 40,000  Climbing Jacksonville Center
11:08AM 30.9653 -82.0639 186° South 332 382 39,900 -60 Descending Jacksonville Center
11:09AM 30.8714 -82.0697 183° South 332 382 39,900  Level Jacksonville Center
11:10AM 30.7756 -82.0800 185° South 332 382 39,900  Level Jacksonville Center
11:11AM 30.6817 -82.0883 184° South 337 388 40,000  Climbing Jacksonville Center
11:12AM 30.5878 -82.0986 185° South 342 394 40,000 -60 Level Jacksonville Center
11:13AM 30.4958 -82.1019 182° South 342 394 39,900 -60 Descending Jacksonville Center
11:14AM 30.3997 -82.1097 184° South 342 394 39,900  Level Jacksonville Center
11:15AM 30.3039 -82.1203 185° South 348 400 39,900  Level Jacksonville Center
11:16AM 30.2119 -82.1258 183° South 348 400 39,900  Level Jacksonville Center
11:17AM 30.1139 -82.1169 176° South 348 400 39,900  Level Jacksonville Center
11:18AM 30.0053 -82.1011 173° South 355 409 39,900 -240 Level Jacksonville Center
11:19AM 29.9089 -82.0803 169° South 355 409 39,500 -540 Descending Jacksonville Center
11:20AM 29.8108 -82.0594 170° South 360 414 38,900 -720 Descending Jacksonville Center
11:21AM 29.7250 -82.0389 168° South 354 407 38,100 -900 Descending Jacksonville Center
11:22AM 29.6183 -82.0231 173° South 354 407 37,100 -1,020 Descending Jacksonville Center
11:23AM 29.5222 -82.0022 169° South 354 407 36,100 -960 Descending Jacksonville Center
11:24AM 29.4219 -81.9842 171° South 354 407 35,200 -600 Descending Jacksonville Center
11:25AM 29.3194 -81.9614 169° South 360 414 34,900 -120 Descending Jacksonville Center
11:26AM 29.2211 -81.9433 171° South 365 420 35,000 -480 Climbing Jacksonville Center
11:27AM 29.1314 -81.9228 169° South 370 426 34,000 -1,140 Descending Jacksonville Center
11:28AM 29.0289 -81.9022 170° South 375 432 32,800 -1,260 Descending Jacksonville Center
11:29AM 28.9286 -81.8797 169° South 375 432 31,500 -1,380 Descending Jacksonville Center
11:32AM 28.6506 -81.8281 171° South 366 421 27,900 -1,260 Descending Miami Center
11:33AM 28.5511 -81.8072 170° South 371 427 26,900 -540 Descending Miami Center
11:34AM 28.4542 -81.7817 167° South 371 427 26,900 -300 Level Miami Center
11:35AM 28.3528 -81.7514 165° South 371 427 26,300 -780 Descending Miami Center
11:36AM 28.2619 -81.7261 166° South 371 427 25,400 -960 Descending Miami Center
11:37AM 28.1647 -81.6983 166° South 371 427 24,400 -1,020 Descending Miami Center
11:38AM 28.0656 -81.6706 166° South 371 427 23,400 -1,080 Descending Miami Center
11:39AM 27.9711 -81.6925 192° South 350 403 22,300 -1,080 Descending Miami Center
11:40AM 27.8764 -81.7167 193° South 350 403 21,300 -1,080 Descending Miami Center
11:41AM 27.7733 -81.7356 189° South 350 403 20,200 -1,080 Descending Miami Center
11:42AM 27.6772 -81.7408 183° South 357 411 19,200 -900 Descending Miami Center
11:43AM 27.5831 -81.7464 183° South 350 403 18,500 -780 Descending Miami Center
11:44AM 27.5003 -81.7242 167° South 345 397 17,700 -960 Descending Miami Center
11:45AM 27.4183 -81.6808 155° Southeast 333 383 16,600 -1,260 Descending Miami Center
11:46AM 27.3342 -81.6400 157° South 333 383 15,200 -1,500 Descending Miami Center
11:47AM 27.2478 -81.5989 157° South 333 383 13,700 -1,440 Descending Miami Center
11:48AM 27.1678 -81.5606 157° South 328 377 12,400 -1,320 Descending Miami Center
11:49AM 27.0936 -81.5250 157° South 309 356 11,100 -1,200 Descending Miami Center
11:50AM 27.0117 -81.4819 155° Southeast 303 349 10,000 -720 Descending Miami Center
11:51AM 26.9417 -81.4489 157° South 298 343 9,700 -600 Descending Miami Center
11:52AM 26.8656 -81.4111 156° South 298 343 8,800 -900 Descending Miami Center
11:53AM 26.7892 -81.3872 164° South 290 334 8,000 -420 Descending Miami Center
11:54AM 26.7158 -81.3936 184° South 273 314 8,000  Level Miami Center
11:55AM 26.6386 -81.3953 181° South 273 314 8,000  Level Miami Center
11:56AM 26.5653 -81.3994 183° South 273 314 8,000  Level Miami Center
11:58AM 26.4324 -81.4241 194° South  Level FlightAware Approximate
12:05PM 26.1500 -81.7667 246° West  Level FlightAware Approximate
12:06PM 26.1524 -81.7756 246° West  Level Estimated
12:07PM 26.1524 -81.7756 246° West  Level Estimated
12:08PM 26.1524 -81.7756 246° West  Level Estimated
12:09PM 26.1524 -81.7756 246° West  Level Estimated
12:10PM 26.1524 -81.7756 246° West  Level Estimated
12:11PM 26.1524 -81.7756 246° West  Level Estimated
12:12PM 26.1524 -81.7756 246° West  Level Estimated
12:13PM 26.1524 -81.7756 246° West  Level Estimated
12:14PM 26.1524 -81.7756 246° West  Level Estimated
12:15PM 26.1524 -81.7756 246° West  Level Estimated